<?xml version="1.0" encoding="UTF-8" standalone="no" ?>
<gpx xmlns="http://www.topografix.com/GPX/1/1" xmlns:xsi="http://www.w3.org/2001/XMLSchema-instance" xsi:schemaLocation="http://www.topografix.com/GPX/1/1 http://www.topografix.com/GPX/1/1/gpx.xsd" version="1.1" creator="VisuGPX - https://www.visugpx.com">
  <metadata>
    <name>Chauve_HautePerche_23km</name>
    <desc><![CDATA[gnerando idor:12813108]]></desc>
  </metadata>
  <trk>
    <name><![CDATA[Chauve_HautePerche_23km-12813108]]></name>
    <extensions>
      <line xmlns="http://www.topografix.com/GPX/gpx_style/0/2">
        <color>0000FF</color>
        <width>4</width>
      </line>
    </extensions>
    <trkseg>
      <trkpt lat="47.15072" lon="-1.98718">
        <ele>28</ele>
        <time>2023-11-01T12:46:52Z</time>
      </trkpt>
      <trkpt lat="47.14984" lon="-1.98797">
        <ele>26</ele>
        <time>2023-11-01T12:49:10Z</time>
      </trkpt>
      <trkpt lat="47.15325" lon="-1.99995">
        <ele>18</ele>
        <time>2023-11-01T13:08:48Z</time>
      </trkpt>
      <trkpt lat="47.15318" lon="-2.00356">
        <ele>14</ele>
        <time>2023-11-01T13:14:16Z</time>
      </trkpt>
      <trkpt lat="47.1499" lon="-2.00435">
        <ele>11</ele>
        <time>2023-11-01T13:21:39Z</time>
      </trkpt>
      <trkpt lat="47.14995" lon="-2.00523">
        <ele>11</ele>
        <time>2023-11-01T13:23:00Z</time>
      </trkpt>
      <trkpt lat="47.14675" lon="-2.00823">
        <ele>14</ele>
        <time>2023-11-01T13:31:26Z</time>
      </trkpt>
      <trkpt lat="47.14631" lon="-2.00944">
        <ele>13</ele>
        <time>2023-11-01T13:33:31Z</time>
      </trkpt>
      <trkpt lat="47.14457" lon="-2.01136">
        <ele>12</ele>
        <time>2023-11-01T13:38:21Z</time>
      </trkpt>
      <trkpt lat="47.14402" lon="-2.01558">
        <ele>11</ele>
        <time>2023-11-01T13:44:51Z</time>
      </trkpt>
      <trkpt lat="47.14416" lon="-2.01884">
        <ele>10</ele>
        <time>2023-11-01T13:49:47Z</time>
      </trkpt>
      <trkpt lat="47.14471" lon="-2.02012">
        <ele>10</ele>
        <time>2023-11-01T13:52:05Z</time>
      </trkpt>
      <trkpt lat="47.14443" lon="-2.02282">
        <ele>10</ele>
        <time>2023-11-01T13:56:13Z</time>
      </trkpt>
      <trkpt lat="47.14221" lon="-2.0241">
        <ele>8</ele>
        <time>2023-11-01T14:01:31Z</time>
      </trkpt>
      <trkpt lat="47.14103" lon="-2.02629">
        <ele>8</ele>
        <time>2023-11-01T14:05:44Z</time>
      </trkpt>
      <trkpt lat="47.13784" lon="-2.02726">
        <ele>5</ele>
        <time>2023-11-01T14:12:59Z</time>
      </trkpt>
      <trkpt lat="47.13812" lon="-2.02522">
        <ele>5</ele>
        <time>2023-11-01T14:16:08Z</time>
      </trkpt>
      <trkpt lat="47.13742" lon="-2.02379">
        <ele>4</ele>
        <time>2023-11-01T14:18:48Z</time>
      </trkpt>
      <trkpt lat="47.13749" lon="-2.0191">
        <ele>12</ele>
        <time>2023-11-01T14:25:54Z</time>
      </trkpt>
      <trkpt lat="47.13506" lon="-2.02017">
        <ele>9</ele>
        <time>2023-11-01T14:31:32Z</time>
      </trkpt>
      <trkpt lat="47.13333" lon="-2.01945">
        <ele>11</ele>
        <time>2023-11-01T14:35:32Z</time>
      </trkpt>
      <trkpt lat="47.13079" lon="-2.01956">
        <ele>14</ele>
        <time>2023-11-01T14:41:11Z</time>
      </trkpt>
      <trkpt lat="47.12902" lon="-2.01716">
        <ele>10</ele>
        <time>2023-11-01T14:46:33Z</time>
      </trkpt>
      <trkpt lat="47.12888" lon="-2.01507">
        <ele>8</ele>
        <time>2023-11-01T14:49:43Z</time>
      </trkpt>
      <trkpt lat="47.12843" lon="-2.01461">
        <ele>7</ele>
        <time>2023-11-01T14:50:57Z</time>
      </trkpt>
      <trkpt lat="47.1277" lon="-2.01466">
        <ele>6</ele>
        <time>2023-11-01T14:52:34Z</time>
      </trkpt>
      <trkpt lat="47.12753" lon="-2.01537">
        <ele>6</ele>
        <time>2023-11-01T14:53:42Z</time>
      </trkpt>
      <trkpt lat="47.12638" lon="-2.01537">
        <ele>1</ele>
        <time>2023-11-01T14:56:16Z</time>
      </trkpt>
      <trkpt lat="47.12631" lon="-2.01343">
        <ele>2</ele>
        <time>2023-11-01T14:59:12Z</time>
      </trkpt>
      <trkpt lat="47.12569" lon="-2.01119">
        <ele>2</ele>
        <time>2023-11-01T15:02:52Z</time>
      </trkpt>
      <trkpt lat="47.12586" lon="-2.00909">
        <ele>1</ele>
        <time>2023-11-01T15:06:04Z</time>
      </trkpt>
      <trkpt lat="47.12794" lon="-2.0095">
        <ele>7</ele>
        <time>2023-11-01T15:10:44Z</time>
      </trkpt>
      <trkpt lat="47.12763" lon="-2.00465">
        <ele>3</ele>
        <time>2023-11-01T15:18:06Z</time>
      </trkpt>
      <trkpt lat="47.12694" lon="-2.00241">
        <ele>2</ele>
        <time>2023-11-01T15:21:49Z</time>
      </trkpt>
      <trkpt lat="47.12926" lon="-2.00108">
        <ele>4</ele>
        <time>2023-11-01T15:27:22Z</time>
      </trkpt>
      <trkpt lat="47.13069" lon="-2.00236">
        <ele>9</ele>
        <time>2023-11-01T15:31:05Z</time>
      </trkpt>
      <trkpt lat="47.13208" lon="-2.00292">
        <ele>10</ele>
        <time>2023-11-01T15:34:18Z</time>
      </trkpt>
      <trkpt lat="47.13229" lon="-2.00068">
        <ele>9</ele>
        <time>2023-11-01T15:37:43Z</time>
      </trkpt>
      <trkpt lat="47.13211" lon="-1.99871">
        <ele>8</ele>
        <time>2023-11-01T15:40:43Z</time>
      </trkpt>
      <trkpt lat="47.13264" lon="-1.99536">
        <ele>9</ele>
        <time>2023-11-01T15:45:56Z</time>
      </trkpt>
      <trkpt lat="47.1334" lon="-1.99141">
        <ele>7</ele>
        <time>2023-11-01T15:52:08Z</time>
      </trkpt>
      <trkpt lat="47.13211" lon="-1.98789">
        <ele>6</ele>
        <time>2023-11-01T15:58:11Z</time>
      </trkpt>
      <trkpt lat="47.12907" lon="-1.98678">
        <ele>1</ele>
        <time>2023-11-01T16:05:09Z</time>
      </trkpt>
      <trkpt lat="47.12884" lon="-1.9836">
        <ele>1</ele>
        <time>2023-11-01T16:10:00Z</time>
      </trkpt>
      <trkpt lat="47.13053" lon="-1.98008">
        <ele>3</ele>
        <time>2023-11-01T16:16:31Z</time>
      </trkpt>
      <trkpt lat="47.13118" lon="-1.97811">
        <ele>4</ele>
        <time>2023-11-01T16:19:49Z</time>
      </trkpt>
      <trkpt lat="47.131" lon="-1.97459">
        <ele>4</ele>
        <time>2023-11-01T16:25:10Z</time>
      </trkpt>
      <trkpt lat="47.13024" lon="-1.97364">
        <ele>3</ele>
        <time>2023-11-01T16:27:23Z</time>
      </trkpt>
      <trkpt lat="47.12925" lon="-1.97296">
        <ele>3</ele>
        <time>2023-11-01T16:29:49Z</time>
      </trkpt>
      <trkpt lat="47.13141" lon="-1.96978">
        <ele>3</ele>
        <time>2023-11-01T16:36:37Z</time>
      </trkpt>
      <trkpt lat="47.12913" lon="-1.96781">
        <ele>3</ele>
        <time>2023-11-01T16:42:30Z</time>
      </trkpt>
      <trkpt lat="47.12691" lon="-1.95227">
        <ele>5</ele>
        <time>2023-11-01T17:06:31Z</time>
      </trkpt>
      <trkpt lat="47.12849" lon="-1.95064">
        <ele>4</ele>
        <time>2023-11-01T17:10:49Z</time>
      </trkpt>
      <trkpt lat="47.12598" lon="-1.9448">
        <ele>14</ele>
        <time>2023-11-01T17:21:16Z</time>
      </trkpt>
      <trkpt lat="47.12872" lon="-1.93579">
        <ele>11</ele>
        <time>2023-11-01T17:36:12Z</time>
      </trkpt>
      <trkpt lat="47.12808" lon="-1.93107">
        <ele>10</ele>
        <time>2023-11-01T17:43:29Z</time>
      </trkpt>
      <trkpt lat="47.13129" lon="-1.93039">
        <ele>11</ele>
        <time>2023-11-01T17:50:42Z</time>
      </trkpt>
      <trkpt lat="47.13094" lon="-1.92901">
        <ele>11</ele>
        <time>2023-11-01T17:52:56Z</time>
      </trkpt>
      <trkpt lat="47.1322" lon="-1.92706">
        <ele>11</ele>
        <time>2023-11-01T17:57:00Z</time>
      </trkpt>
      <trkpt lat="47.13398" lon="-1.92566">
        <ele>11</ele>
        <time>2023-11-01T18:01:29Z</time>
      </trkpt>
      <trkpt lat="47.13655" lon="-1.92652">
        <ele>12</ele>
        <time>2023-11-01T18:07:21Z</time>
      </trkpt>
      <trkpt lat="47.13734" lon="-1.93289">
        <ele>13</ele>
        <time>2023-11-01T18:17:09Z</time>
      </trkpt>
      <trkpt lat="47.13608" lon="-1.94197">
        <ele>10</ele>
        <time>2023-11-01T18:31:10Z</time>
      </trkpt>
      <trkpt lat="47.13589" lon="-1.9421">
        <ele>10</ele>
        <time>2023-11-01T18:31:38Z</time>
      </trkpt>
      <trkpt lat="47.13742" lon="-1.94498">
        <ele>6</ele>
        <time>2023-11-01T18:37:10Z</time>
      </trkpt>
      <trkpt lat="47.14466" lon="-1.94807">
        <ele>21</ele>
        <time>2023-11-01T18:53:56Z</time>
      </trkpt>
      <trkpt lat="47.15179" lon="-1.95347">
        <ele>32</ele>
        <time>2023-11-01T19:11:46Z</time>
      </trkpt>
      <trkpt lat="47.15342" lon="-1.95382">
        <ele>31</ele>
        <time>2023-11-01T19:15:26Z</time>
      </trkpt>
      <trkpt lat="47.15663" lon="-1.95734">
        <ele>31</ele>
        <time>2023-11-01T19:24:20Z</time>
      </trkpt>
      <trkpt lat="47.15406" lon="-1.96188">
        <ele>25</ele>
        <time>2023-11-01T19:33:16Z</time>
      </trkpt>
      <trkpt lat="47.15324" lon="-1.966">
        <ele>30</ele>
        <time>2023-11-01T19:39:46Z</time>
      </trkpt>
      <trkpt lat="47.15348" lon="-1.96781">
        <ele>32</ele>
        <time>2023-11-01T19:42:33Z</time>
      </trkpt>
      <trkpt lat="47.15371" lon="-1.97184">
        <ele>33</ele>
        <time>2023-11-01T19:48:40Z</time>
      </trkpt>
      <trkpt lat="47.15208" lon="-1.97433">
        <ele>28</ele>
        <time>2023-11-01T19:53:54Z</time>
      </trkpt>
      <trkpt lat="47.14793" lon="-1.97407">
        <ele>25</ele>
        <time>2023-11-01T20:03:08Z</time>
      </trkpt>
      <trkpt lat="47.14782" lon="-1.97879">
        <ele>22</ele>
        <time>2023-11-01T20:10:17Z</time>
      </trkpt>
      <trkpt lat="47.14957" lon="-1.98412">
        <ele>29</ele>
        <time>2023-11-01T20:19:14Z</time>
      </trkpt>
      <trkpt lat="47.15111" lon="-1.98531">
        <ele>30</ele>
        <time>2023-11-01T20:23:06Z</time>
      </trkpt>
      <trkpt lat="47.15127" lon="-1.98645">
        <ele>29</ele>
        <time>2023-11-01T20:24:52Z</time>
      </trkpt>
      <trkpt lat="47.15064" lon="-1.98711">
        <ele>28</ele>
        <time>2023-11-01T20:26:35Z</time>
      </trkpt>
    </trkseg>
  </trk>
</gpx>